createdAt,value
2022-08-17T00:00:43.702Z,88.01
2022-08-17T00:03:15.313Z,88.09
2022-08-17T00:05:58.533Z,88.27
2022-08-17T00:08:34.806Z,88.38
2022-08-17T00:11:09.429Z,88.56
2022-08-17T00:13:44.514Z,88.71
2022-08-17T00:16:55.620Z,89.18
2022-08-17T00:19:16.585Z,89.67
2022-08-17T00:22:32.353Z,89.74
2022-08-17T00:24:36.605Z,90.00
2022-08-17T00:27:05.107Z,90.20
2022-08-17T00:29:33.660Z,90.25
2022-08-17T00:33:14.072Z,90.46
2022-08-17T00:34:52.444Z,90.61
2022-08-17T00:37:21.111Z,90.79
2022-08-17T00:39:49.688Z,90.90
2022-08-17T00:42:20.478Z,90.92
2022-08-17T00:44:49.183Z,90.91
2022-08-17T00:47:17.712Z,90.92
2022-08-17T00:49:46.233Z,91.15
2022-08-17T00:52:21.831Z,91.43
2022-08-17T00:54:55.122Z,91.81
2022-08-17T00:57:31.231Z,91.92
2022-08-17T01:00:28.355Z,92.04
2022-08-17T01:03:03.372Z,92.13
2022-08-17T01:05:34.250Z,92.12
2022-08-17T01:08:02.931Z,92.09
2022-08-17T01:10:59.457Z,91.93
2022-08-17T01:13:39.772Z,91.79
2022-08-17T01:16:16.364Z,91.78
2022-08-17T01:18:48.436Z,91.82
2022-08-17T01:21:32.787Z,92.18
2022-08-17T01:24:01.983Z,92.42
2022-08-17T01:26:35.910Z,92.62
2022-08-17T01:29:06.624Z,92.69
2022-08-17T01:31:53.546Z,92.83
2022-08-17T01:34:22.529Z,92.91
2022-08-17T01:36:52.719Z,93.18
2022-08-17T01:39:54.272Z,93.19
2022-08-17T01:42:44.904Z,93.26
2022-08-17T01:45:25.900Z,93.38
2022-08-17T01:47:55.645Z,93.52
2022-08-17T01:50:35.071Z,93.49
2022-08-17T01:53:18.781Z,93.70
2022-08-17T01:56:05.694Z,93.89
2022-08-17T01:58:36.929Z,94.01
2022-08-17T02:01:06.914Z,94.09
2022-08-17T02:03:37.507Z,94.09
2022-08-17T02:06:26.953Z,94.16
2022-08-17T02:09:02.328Z,94.43
2022-08-17T02:11:38.450Z,94.76
2022-08-17T02:14:11.761Z,95.14
2022-08-17T02:16:41.382Z,95.47
2022-08-17T02:19:15.834Z,95.55
2022-08-17T02:21:48.996Z,95.68
2022-08-17T02:25:00.888Z,95.77
2022-08-17T02:27:20.945Z,96.16
2022-08-17T02:29:49.562Z,96.33
2022-08-17T02:32:27.891Z,96.36
2022-08-17T02:34:59.222Z,96.09
2022-08-17T02:37:29.990Z,96.04
2022-08-17T02:40:00.036Z,95.87
2022-08-17T02:42:39.823Z,95.82
2022-08-17T02:45:15.222Z,95.66
2022-08-17T02:47:44.875Z,95.73
2022-08-17T02:50:16.932Z,95.71
2022-08-17T02:52:51.509Z,95.70
2022-08-17T02:55:36.630Z,95.81
2022-08-17T02:58:05.359Z,96.03
2022-08-17T03:00:38.423Z,96.14
2022-08-17T03:03:07.944Z,96.24
2022-08-17T03:05:38.582Z,96.29
2022-08-17T03:08:11.718Z,96.56
2022-08-17T03:10:44.136Z,96.70
2022-08-17T03:13:15.663Z,96.77
2022-08-17T03:15:47.179Z,96.81
2022-08-17T03:18:25.603Z,96.80
2022-08-17T03:20:58.580Z,96.82
2022-08-17T03:23:29.575Z,96.64
2022-08-17T03:26:00.706Z,96.65
2022-08-17T03:28:29.402Z,96.62
2022-08-17T03:30:58.213Z,96.69
2022-08-17T03:33:26.794Z,97.02
2022-08-17T03:35:55.366Z,97.29
2022-08-17T03:38:24.883Z,97.66
2022-08-17T03:40:59.147Z,97.86
2022-08-17T03:43:32.205Z,98.00
2022-08-17T03:46:27.984Z,98.40
2022-08-17T03:49:16.385Z,98.59
2022-08-17T03:52:03.719Z,98.41
2022-08-17T03:54:51.092Z,98.46
2022-08-17T03:57:19.682Z,98.85
2022-08-17T03:59:48.268Z,98.80
2022-08-17T04:02:27.633Z,99.01
2022-08-17T04:04:57.151Z,99.09
2022-08-17T04:07:30.587Z,98.90
2022-08-17T04:09:59.744Z,98.69
2022-08-17T04:12:42.006Z,98.38
2022-08-17T04:15:12.845Z,98.33
2022-08-17T04:17:41.730Z,98.47
2022-08-17T04:20:12.951Z,98.62
2022-08-17T04:22:58.197Z,98.64
2022-08-17T04:25:27.558Z,98.64
2022-08-17T04:27:57.563Z,98.77
2022-08-17T04:30:28.959Z,98.96
2022-08-17T04:33:10.964Z,99.04
2022-08-17T04:35:51.761Z,99.20
2022-08-17T04:38:25.050Z,99.29
2022-08-17T04:41:20.802Z,99.74
2022-08-17T04:43:55.071Z,99.98
2022-08-17T04:46:32.884Z,100.00
2022-08-17T04:49:10.379Z,100.00
2022-08-17T04:51:47.899Z,100.00
2022-08-17T04:54:24.934Z,100.00
2022-08-17T04:56:53.511Z,100.00
2022-08-17T04:59:22.715Z,100.00
2022-08-17T05:01:52.506Z,100.00
2022-08-17T05:04:33.212Z,100.00
2022-08-17T05:07:04.819Z,100.00
2022-08-17T05:09:33.717Z,100.00
2022-08-17T05:12:03.313Z,100.00
2022-08-17T05:14:32.941Z,100.00
2022-08-17T05:17:07.145Z,100.00
2022-08-17T05:19:38.236Z,100.00
2022-08-17T05:22:07.009Z,100.00
2022-08-17T05:24:43.060Z,100.00
2022-08-17T05:27:19.349Z,100.00
2022-08-17T05:29:47.995Z,100.00
2022-08-17T05:32:38.034Z,100.00
2022-08-17T05:35:06.716Z,100.00
2022-08-17T05:37:35.239Z,100.00
2022-08-17T05:40:06.620Z,100.00
2022-08-17T05:42:35.112Z,100.00
2022-08-17T05:45:05.336Z,100.00
2022-08-17T05:47:33.832Z,100.00
2022-08-17T05:50:09.926Z,100.00
2022-08-17T05:53:06.748Z,100.00
2022-08-17T05:55:49.129Z,100.00
2022-08-17T05:58:36.212Z,100.00
2022-08-17T06:01:49.474Z,100.00
2022-08-17T06:04:57.682Z,100.00
2022-08-17T06:07:53.730Z,100.00
2022-08-17T06:10:44.099Z,100.00
2022-08-17T06:13:49.989Z,100.00
2022-08-17T06:16:33.270Z,100.00
2022-08-17T06:19:33.449Z,100.00
2022-08-17T06:22:04.260Z,100.00
2022-08-17T06:24:51.570Z,100.00
2022-08-17T06:27:58.696Z,100.00
2022-08-17T06:30:57.492Z,99.94
2022-08-17T06:33:30.721Z,98.95
2022-08-17T06:36:02.724Z,98.19
2022-08-17T06:38:57.632Z,96.78
2022-08-17T06:41:45.904Z,96.03
2022-08-17T06:44:43.390Z,95.77
2022-08-17T06:48:13.245Z,95.04
2022-08-17T06:50:51.340Z,94.60
2022-08-17T06:53:27.445Z,94.01
2022-08-17T06:56:53.395Z,93.51
2022-08-17T06:59:34.846Z,93.38
2022-08-17T07:03:21.067Z,93.47
2022-08-17T07:05:59.186Z,92.93
2022-08-17T07:08:42.716Z,92.39
2022-08-17T07:11:34.583Z,92.37
2022-08-17T07:14:16.953Z,91.90
2022-08-17T07:16:51.452Z,91.52
2022-08-17T07:19:24.525Z,91.55
2022-08-17T07:22:11.481Z,91.17
2022-08-17T07:24:53.349Z,90.30
2022-08-17T07:27:30.963Z,90.75
2022-08-17T07:30:10.899Z,90.93
2022-08-17T07:32:53.635Z,89.81
2022-08-17T07:35:44.594Z,89.45
2022-08-17T07:38:26.953Z,88.31
2022-08-17T07:41:02.324Z,87.60
2022-08-17T07:43:40.315Z,86.93
2022-08-17T07:46:36.962Z,86.07
2022-08-17T07:49:13.392Z,84.82
2022-08-17T07:51:45.890Z,84.02
2022-08-17T07:54:26.323Z,83.29
2022-08-17T07:57:14.515Z,83.03
2022-08-17T08:00:16.990Z,82.16
2022-08-17T08:03:00.341Z,81.99
2022-08-17T08:05:50.133Z,81.73
2022-08-17T08:08:43.842Z,81.24
2022-08-17T08:11:28.370Z,81.38
2022-08-17T08:14:31.432Z,81.00
2022-08-17T08:17:07.303Z,80.56
2022-08-17T08:19:38.255Z,79.80
2022-08-17T08:22:21.774Z,79.47
2022-08-17T08:25:28.840Z,78.76
2022-08-17T08:28:20.549Z,78.15
2022-08-17T08:31:02.421Z,77.85
2022-08-17T08:33:59.638Z,77.73
2022-08-17T08:37:13.019Z,76.80
2022-08-17T08:40:32.290Z,76.47
2022-08-17T08:43:22.821Z,76.70
2022-08-17T08:46:22.998Z,76.69
2022-08-17T08:52:51.119Z,76.06
2022-08-17T08:56:12.264Z,75.80
2022-08-17T08:59:03.319Z,74.54
2022-08-17T09:01:51.325Z,73.17
2022-08-17T09:04:50.191Z,72.90
2022-08-17T09:07:57.506Z,73.19
2022-08-17T09:11:00.065Z,73.03
2022-08-17T09:13:54.710Z,72.07
2022-08-17T09:16:41.667Z,71.33
2022-08-17T09:19:21.429Z,71.12
2022-08-17T09:21:59.174Z,70.51
2022-08-17T09:24:49.373Z,70.31
2022-08-17T09:27:29.226Z,70.40
2022-08-17T09:30:04.265Z,70.75
2022-08-17T09:32:46.265Z,69.64
2022-08-17T09:35:36.509Z,69.30
2022-08-17T09:38:19.657Z,67.91
2022-08-17T09:41:00.116Z,67.77
2022-08-17T09:43:37.216Z,67.42
2022-08-17T09:46:23.969Z,67.28
2022-08-17T09:49:40.770Z,66.65
2022-08-17T09:52:25.190Z,66.55
2022-08-17T09:54:57.096Z,67.02
2022-08-17T09:57:57.510Z,67.06
2022-08-17T10:00:35.832Z,66.39
2022-08-17T10:03:35.585Z,65.27
2022-08-17T10:06:22.474Z,64.90
2022-08-17T10:09:22.371Z,63.68
2022-08-17T10:12:17.294Z,62.71
2022-08-17T10:15:15.472Z,62.04
2022-08-17T10:18:32.171Z,60.59
2022-08-17T10:21:30.442Z,60.89
2022-08-17T10:24:32.106Z,60.38
2022-08-17T10:27:07.729Z,59.50
2022-08-17T10:29:49.657Z,59.07
2022-08-17T10:32:32.854Z,59.03
2022-08-17T10:35:25.831Z,59.12
2022-08-17T10:38:17.061Z,58.59
2022-08-17T10:41:38.190Z,57.26
2022-08-17T10:44:45.844Z,56.03
2022-08-17T10:47:18.538Z,55.83
2022-08-17T10:49:56.217Z,56.00
2022-08-17T10:52:27.893Z,55.02
2022-08-17T10:54:58.788Z,55.46
2022-08-17T10:57:27.771Z,55.28
2022-08-17T10:59:59.412Z,54.77
2022-08-17T11:02:54.791Z,54.95
2022-08-17T11:06:24.523Z,54.55
2022-08-17T11:13:07.613Z,54.34
2022-08-17T11:15:45.951Z,54.29
2022-08-17T11:18:25.847Z,54.10
2022-08-17T11:21:15.518Z,54.29
2022-08-17T11:24:33.135Z,53.57
2022-08-17T11:27:11.982Z,52.67
2022-08-17T11:30:02.076Z,52.40
2022-08-17T11:32:47.450Z,52.07
2022-08-17T11:35:22.445Z,52.20
2022-08-17T11:38:15.912Z,51.54
2022-08-17T11:41:24.123Z,51.03
2022-08-17T11:44:15.560Z,50.59
2022-08-17T11:47:37.479Z,50.55
2022-08-17T11:50:46.306Z,50.83
2022-08-17T11:53:37.435Z,51.44
2022-08-17T11:56:41.277Z,51.29
2022-08-17T11:59:36.200Z,51.70
2022-08-17T12:02:20.064Z,52.03
2022-08-17T12:05:26.298Z,51.79
2022-08-17T12:10:56.225Z,51.93
2022-08-17T12:13:35.184Z,51.55
2022-08-17T12:16:10.149Z,50.59
2022-08-17T12:18:42.949Z,50.40
2022-08-17T12:21:17.397Z,50.41
2022-08-17T12:24:13.469Z,50.37
2022-08-17T12:26:52.858Z,50.68
2022-08-17T12:29:39.062Z,50.39
2022-08-17T12:32:20.220Z,50.56
2022-08-17T12:35:06.005Z,50.32
2022-08-17T12:37:36.621Z,50.67
2022-08-17T12:40:16.854Z,50.50
2022-08-17T12:43:04.082Z,50.14
2022-08-17T12:45:42.183Z,49.65
2022-08-17T12:48:22.557Z,49.79
2022-08-17T12:50:58.695Z,49.88
2022-08-17T12:53:35.227Z,49.53
2022-08-17T12:56:16.199Z,49.43
2022-08-17T12:59:07.389Z,48.97
2022-08-17T13:01:47.082Z,48.48
2022-08-17T13:04:19.729Z,49.56
2022-08-17T13:06:59.568Z,50.41
2022-08-17T13:09:35.350Z,50.50
2022-08-17T13:12:09.141Z,49.93
2022-08-17T13:14:58.218Z,49.84
2022-08-17T13:17:59.316Z,49.72
2022-08-17T13:20:30.611Z,49.61
2022-08-17T13:26:31.724Z,49.97
2022-08-17T13:29:52.931Z,49.84
2022-08-17T13:39:19.068Z,49.09
2022-08-17T13:44:51.775Z,49.24
2022-08-17T13:48:47.662Z,49.02
2022-08-17T14:07:44.286Z,48.15
2022-08-17T14:10:30.040Z,47.95
2022-08-17T14:16:00.675Z,47.51
2022-08-17T14:19:09.667Z,47.30
2022-08-17T14:22:17.574Z,46.95
2022-08-17T14:25:39.280Z,46.80
2022-08-17T14:28:10.541Z,46.65
2022-08-17T14:37:28.657Z,46.38
2022-08-17T14:40:56.069Z,45.97
2022-08-17T14:43:30.164Z,45.74
2022-08-17T14:46:34.639Z,46.05
2022-08-17T14:49:24.069Z,46.43
2022-08-17T14:55:25.136Z,45.91
2022-08-17T14:57:53.979Z,45.25
2022-08-17T15:00:43.030Z,45.08
2022-08-17T15:03:31.541Z,45.02
2022-08-17T15:06:16.462Z,44.71
2022-08-17T15:09:12.850Z,44.45
2022-08-17T15:12:08.591Z,44.60
2022-08-17T15:17:51.658Z,44.10
2022-08-17T15:20:38.269Z,43.99
2022-08-17T15:23:59.195Z,44.17
2022-08-17T15:29:47.679Z,44.28
2022-08-17T15:33:00.536Z,43.99
2022-08-17T15:35:45.850Z,43.75
2022-08-17T15:38:40.177Z,44.20
2022-08-17T15:41:31.751Z,43.90
2022-08-17T15:44:21.809Z,43.99
2022-08-17T15:47:12.897Z,43.70
2022-08-17T15:53:41.279Z,44.05
2022-08-17T15:56:24.319Z,43.62
2022-08-17T16:03:47.027Z,43.06
2022-08-17T16:08:26.388Z,42.71
2022-08-17T16:17:39.143Z,43.11
2022-08-17T16:20:20.526Z,43.56
2022-08-17T16:23:25.337Z,43.90
2022-08-17T16:26:01.647Z,43.87
2022-08-17T16:29:00.718Z,44.08
2022-08-17T16:34:44.040Z,44.24
2022-08-17T16:37:13.652Z,44.05
2022-08-17T16:39:43.321Z,44.21
2022-08-17T16:42:30.251Z,44.34
2022-08-17T16:45:20.282Z,44.49
2022-08-17T16:47:50.192Z,44.51
2022-08-17T16:50:24.393Z,44.27
2022-08-17T16:52:53.152Z,44.67
2022-08-17T16:55:27.466Z,44.72
2022-08-17T16:57:55.930Z,45.19
2022-08-17T17:00:31.156Z,45.36
2022-08-17T17:03:20.233Z,45.61
2022-08-17T17:06:18.753Z,45.77
2022-08-17T17:09:08.939Z,46.11
2022-08-17T17:11:48.059Z,46.78
2022-08-17T17:14:30.579Z,47.61
2022-08-17T17:17:14.513Z,48.74
2022-08-17T17:19:48.656Z,49.54
2022-08-17T17:22:48.365Z,50.45
2022-08-17T17:29:00.522Z,52.28
2022-08-17T17:32:02.043Z,53.39
2022-08-17T17:34:39.750Z,54.33
2022-08-17T17:37:17.224Z,54.88
2022-08-17T17:39:56.005Z,55.71
2022-08-17T17:42:31.413Z,56.36
2022-08-17T17:45:20.224Z,56.79
2022-08-17T17:47:49.631Z,57.34
2022-08-17T17:50:21.541Z,57.58
2022-08-17T17:53:12.723Z,58.35
2022-08-17T17:56:01.669Z,59.05
2022-08-17T17:58:57.894Z,59.22
2022-08-17T18:01:48.045Z,59.72
2022-08-17T18:04:52.226Z,60.23
2022-08-17T18:07:39.713Z,60.68
2022-08-17T18:10:55.556Z,61.70
2022-08-17T18:13:50.349Z,61.88
2022-08-17T18:16:20.181Z,62.68
2022-08-17T18:18:52.614Z,63.33
2022-08-17T18:21:35.001Z,63.58
2022-08-17T18:24:08.968Z,63.53
2022-08-17T18:26:55.772Z,64.07
2022-08-17T18:29:42.884Z,64.33
2022-08-17T18:32:25.206Z,64.63
2022-08-17T18:35:08.820Z,64.83
2022-08-17T18:37:39.747Z,65.16
2022-08-17T18:40:17.200Z,65.44
2022-08-17T18:43:09.132Z,65.61
2022-08-17T18:45:54.637Z,65.74
2022-08-17T18:48:48.947Z,66.12
2022-08-17T18:51:35.726Z,66.97
2022-08-17T18:54:24.107Z,67.45
2022-08-17T18:57:00.109Z,67.78
2022-08-17T18:59:52.149Z,68.54
2022-08-17T19:08:28.512Z,69.12
2022-08-17T19:11:10.088Z,69.51
2022-08-17T19:17:22.741Z,70.56
2022-08-17T19:20:09.938Z,70.51
2022-08-17T19:22:44.258Z,70.97
2022-08-17T19:25:24.884Z,70.99
2022-08-17T19:28:03.736Z,71.29
2022-08-17T19:30:33.264Z,71.61
2022-08-17T19:33:03.368Z,71.81
2022-08-17T19:35:46.628Z,72.31
2022-08-17T19:39:04.891Z,72.73
2022-08-17T19:41:44.762Z,73.66
2022-08-17T19:44:37.778Z,73.84
2022-08-17T19:47:26.140Z,74.32
2022-08-17T19:54:04.957Z,74.82
2022-08-17T19:57:02.038Z,75.14
2022-08-17T19:59:51.594Z,75.27
2022-08-17T20:02:27.908Z,75.70
2022-08-17T20:05:01.917Z,76.11
2022-08-17T20:07:52.894Z,76.18
2022-08-17T20:10:34.705Z,76.36
2022-08-17T20:13:09.938Z,76.73
2022-08-17T20:15:43.172Z,77.24
2022-08-17T20:19:04.545Z,77.13
2022-08-17T20:21:53.984Z,77.35
2022-08-17T20:24:50.523Z,77.25
2022-08-17T20:27:31.970Z,77.12
2022-08-17T20:30:10.315Z,77.30
2022-08-17T20:32:59.918Z,77.50
2022-08-17T20:35:38.590Z,77.91
2022-08-17T20:38:48.449Z,78.20
2022-08-17T20:41:27.597Z,78.55
2022-08-17T20:43:59.086Z,79.09
2022-08-17T20:46:48.267Z,79.59
2022-08-17T20:49:49.196Z,80.25
2022-08-17T20:52:36.087Z,80.64
2022-08-17T20:55:05.695Z,80.93
2022-08-17T20:57:37.022Z,80.96
2022-08-17T21:00:17.429Z,80.65
2022-08-17T21:02:49.748Z,80.45
2022-08-17T21:05:34.844Z,80.39
2022-08-17T21:08:17.467Z,79.54
2022-08-17T21:10:47.160Z,78.91
2022-08-17T21:13:15.644Z,78.74
2022-08-17T21:16:07.748Z,78.22
2022-08-17T21:18:50.140Z,78.45
2022-08-17T21:21:25.053Z,78.20
2022-08-17T21:24:35.325Z,78.08
2022-08-17T21:27:22.447Z,78.10
2022-08-17T21:30:20.716Z,78.16
2022-08-17T21:33:27.872Z,78.09
2022-08-17T21:35:59.148Z,78.07
2022-08-17T21:38:53.363Z,78.04
2022-08-17T21:41:31.356Z,78.12
2022-08-17T21:44:46.307Z,78.06
2022-08-17T21:47:28.217Z,78.50
2022-08-17T21:50:16.318Z,78.62
2022-08-17T21:52:45.003Z,78.93
2022-08-17T21:55:28.300Z,79.02
2022-08-17T21:58:13.696Z,79.25
2022-08-17T22:00:46.124Z,79.32
2022-08-17T22:03:28.688Z,79.60
2022-08-17T22:05:56.934Z,79.61
2022-08-17T22:08:25.518Z,79.72
2022-08-17T22:11:01.774Z,79.95
2022-08-17T22:13:30.278Z,79.94
2022-08-17T22:16:28.020Z,80.14
2022-08-17T22:19:00.622Z,80.32
2022-08-17T22:21:29.018Z,80.39
2022-08-17T22:24:21.336Z,80.40
2022-08-17T22:27:12.975Z,80.50
2022-08-17T22:29:58.404Z,80.44
2022-08-17T22:32:31.836Z,80.55
2022-08-17T22:35:42.728Z,80.54
2022-08-17T22:38:20.342Z,80.46
2022-08-17T22:40:54.904Z,80.41
2022-08-17T22:43:28.801Z,80.44
2022-08-17T22:46:00.084Z,80.49
2022-08-17T22:48:30.395Z,80.81
2022-08-17T22:51:17.526Z,80.93
2022-08-17T22:54:12.591Z,81.03
2022-08-17T22:57:21.282Z,81.00
2022-08-17T22:59:55.633Z,81.23
2022-08-17T23:02:30.779Z,81.49
2022-08-17T23:05:12.891Z,81.38
2022-08-17T23:07:43.505Z,81.52
2022-08-17T23:10:13.580Z,81.55
2022-08-17T23:12:42.469Z,81.54
2022-08-17T23:15:16.469Z,81.67
2022-08-17T23:17:45.959Z,83.94
2022-08-17T23:20:17.628Z,85.35
2022-08-17T23:22:52.230Z,85.29
2022-08-17T23:25:31.070Z,85.33
2022-08-17T23:28:01.748Z,85.01
2022-08-17T23:30:39.408Z,84.24
2022-08-17T23:33:18.585Z,84.04
2022-08-17T23:35:47.173Z,83.76
2022-08-17T23:38:15.487Z,83.47
2022-08-17T23:40:43.973Z,83.59
2022-08-17T23:43:25.690Z,83.72
2022-08-17T23:46:04.047Z,84.11
2022-08-17T23:48:36.314Z,84.06
2022-08-17T23:51:20.337Z,84.07
2022-08-17T23:53:55.588Z,84.26
2022-08-17T23:56:26.107Z,84.45
2022-08-17T23:58:56.082Z,84.63
